San Justo, Argentina
Current Conditions -  °F | °C
As of 3:00 PM on Tuesday 21 Oct 2014 (Local Time) from SAEZ Reporting Station
Clear Clear  
Wind Chill: 82°   Ceiling: Unl
Heat Index: 82°   Visibility: 6mi
Dew Point: 54°   Wind: 12mph
Humidity: 37%   Direction: 330°NNW
Pressure: 30.03"   Gusts: NA
Location:  34.67°S, 58.55°W
Report Text: SAEZ 211800Z 33010KT 280V010 CAVOK 28/12 Q1017
Loading
Personal Weather Stations






























Interactive Weather Map
Tropical Storm Tracking
New forecast layout! Learn more

10-Day Weather Forecast

Advertisements
Track Severe Weather on mobile